Time;durP1;ratioP1;P1;durP2;ratioP2;P2;SDS_P1;SDS_P2;PMS_P1;PMS_P2;Temp;Humidity;BMP_temperature;BMP_pressure;BME280_temperature;BME280_humidity;BME280_pressure;Samples;Min_cycle;Max_cycle;Signal;HPM_P1;HPM_P2
2022/07/29 00:02:17;;;;;;;7.32;1.90;;;20.00;99.90;;;;;;5131823;27;20179;-44
2022/07/29 00:04:43;;;;;;;6.03;2.03;;;20.10;99.90;;;;;;5133297;27;20168;-44
2022/07/29 00:07:08;;;;;;;6.70;2.00;;;20.10;99.90;;;;;;5136292;27;20259;-44
2022/07/29 00:09:34;;;;;;;6.05;2.22;;;20.10;99.90;;;;;;5136360;27;20240;-44
2022/07/29 00:12:01;;;;;;;4.45;2.13;;;20.10;99.90;;;;;;5136019;27;20268;-44
2022/07/29 00:14:27;;;;;;;5.40;2.00;;;20.10;99.90;;;;;;5136593;27;20258;-44
2022/07/29 00:16:53;;;;;;;7.45;1.80;;;20.00;99.90;;;;;;5117928;27;20203;-44
2022/07/29 00:19:18;;;;;;;4.70;1.92;;;20.00;99.90;;;;;;5136083;27;20175;-44
2022/07/29 00:21:44;;;;;;;4.05;2.00;;;20.00;99.90;;;;;;5136004;27;20203;-48
2022/07/29 00:24:10;;;;;;;17.92;2.30;;;20.00;99.90;;;;;;5136074;27;20252;-45
2022/07/29 00:26:35;;;;;;;6.53;2.30;;;20.00;99.90;;;;;;5136153;27;20168;-45
2022/07/29 00:29:02;;;;;;;5.18;2.25;;;20.00;99.90;;;;;;5135805;27;20160;-44
2022/07/29 00:31:28;;;;;;;6.72;1.98;;;20.00;99.90;;;;;;5135962;27;20160;-44
2022/07/29 00:33:54;;;;;;;5.75;2.25;;;20.00;99.90;;;;;;5135819;27;20164;-44
2022/07/29 00:36:22;;;;;;;3.38;2.25;;;20.00;99.90;;;;;;5135700;27;20188;-44
2022/07/29 00:38:50;;;;;;;3.95;1.85;;;20.00;99.90;;;;;;5135746;27;20225;-45
2022/07/29 00:41:16;;;;;;;7.85;2.22;;;20.00;99.90;;;;;;5135677;27;20229;-45
2022/07/29 00:43:42;;;;;;;6.18;2.28;;;20.00;99.90;;;;;;5135623;27;20619;-47
2022/07/29 00:46:07;;;;;;;5.13;2.10;;;20.00;99.90;;;;;;5135679;27;20217;-44
2022/07/29 00:48:33;;;;;;;7.78;2.13;;;19.90;99.90;;;;;;5135784;27;20164;-45
2022/07/29 00:51:01;;;;;;;5.43;1.80;;;19.90;99.90;;;;;;5135386;27;20565;-45
2022/07/29 00:53:26;;;;;;;8.98;2.17;;;19.90;99.90;;;;;;5135980;27;20217;-46
2022/07/29 00:55:54;;;;;;;4.95;1.95;;;19.90;99.90;;;;;;5135556;27;20203;-47
2022/07/29 00:58:20;;;;;;;9.15;2.50;;;19.90;99.90;;;;;;5135316;27;20193;-45
2022/07/29 01:00:46;;;;;;;3.05;2.03;;;19.90;99.90;;;;;;5135332;27;20670;-47
2022/07/29 01:03:12;;;;;;;7.32;2.10;;;19.90;99.90;;;;;;5135281;27;20202;-47
2022/07/29 01:05:39;;;;;;;5.53;1.80;;;20.00;99.90;;;;;;5135183;27;20160;-46
2022/07/29 01:08:05;;;;;;;5.32;1.85;;;19.90;99.90;;;;;;5134625;27;20160;-45
2022/07/29 01:10:32;;;;;;;6.32;2.00;;;19.90;99.90;;;;;;5134886;27;20223;-46
2022/07/29 01:12:59;;;;;;;4.82;2.00;;;19.90;99.90;;;;;;5135498;27;20536;-46
2022/07/29 01:15:25;;;;;;;6.97;2.10;;;19.80;99.90;;;;;;5135113;27;20167;-46
2022/07/29 01:18:03;;;;;;;3.97;1.80;;;19.70;99.90;;;;;;5134916;27;20200;-46
2022/07/29 01:20:29;;;;;;;5.22;2.22;;;19.70;99.90;;;;;;5134896;27;20171;-44
2022/07/29 01:23:06;;;;;;;8.18;1.77;;;19.70;99.90;;;;;;5135261;27;20163;-45
2022/07/29 01:26:12;;;;;;;5.97;2.83;;;19.80;99.90;;;;;;5134807;27;20205;-46
2022/07/29 01:29:02;;;;;;;6.50;2.20;;;19.80;99.90;;;;;;5134762;27;20607;-45
2022/07/29 01:31:54;;;;;;;6.25;2.25;;;19.80;99.90;;;;;;5135306;27;20168;-45
2022/07/29 01:34:48;;;;;;;5.90;2.10;;;19.80;99.90;;;;;;5134867;27;20164;-46
2022/07/29 01:37:51;;;;;;;4.95;2.28;;;19.70;99.90;;;;;;5134407;27;20706;-45
2022/07/29 01:40:24;;;;;;;6.43;1.80;;;19.70;99.90;;;;;;5134457;27;20164;-44
2022/07/29 01:42:54;;;;;;;7.35;2.20;;;19.70;99.90;;;;;;5134455;27;20721;-47
2022/07/29 01:45:29;;;;;;;6.68;2.05;;;19.70;99.90;;;;;;5134433;27;20647;-45
2022/07/29 01:48:06;;;;;;;3.85;1.80;;;19.80;99.90;;;;;;5134971;27;20198;-45
2022/07/29 01:50:57;;;;;;;4.97;1.88;;;19.70;99.90;;;;;;5134587;27;20254;-46
2022/07/29 01:53:32;;;;;;;5.05;1.77;;;19.70;99.90;;;;;;5086640;27;20188;-45
2022/07/29 01:56:01;;;;;;;5.60;2.10;;;19.80;99.90;;;;;;5134684;27;20298;-47
2022/07/29 01:58:29;;;;;;;5.60;1.92;;;19.70;99.90;;;;;;5134499;27;20251;-45
2022/07/29 02:00:58;;;;;;;4.53;1.90;;;19.80;99.90;;;;;;5134461;27;20170;-45
2022/07/29 02:03:26;;;;;;;4.03;2.13;;;19.70;99.90;;;;;;5134376;27;20167;-45
2022/07/29 02:05:54;;;;;;;6.10;2.20;;;19.60;99.90;;;;;;5134251;27;20176;-44
2022/07/29 02:08:21;;;;;;;3.90;2.30;;;19.60;99.90;;;;;;5133913;27;20160;-44
2022/07/29 02:10:49;;;;;;;3.47;1.80;;;19.50;99.90;;;;;;5133924;27;20235;-45
2022/07/29 02:13:18;;;;;;;4.97;2.03;;;19.40;99.90;;;;;;5133927;27;20156;-46
2022/07/29 02:15:45;;;;;;;8.70;2.15;;;19.30;99.90;;;;;;5133715;27;20164;-45
2022/07/29 02:18:20;;;;;;;3.28;1.92;;;19.20;99.90;;;;;;5133876;27;20531;-42
2022/07/29 02:20:48;;;;;;;27.50;3.55;;;19.10;99.90;;;;;;5133970;27;20168;-42
2022/07/29 02:23:19;;;;;;;8.73;2.25;;;19.10;99.90;;;;;;5133541;27;20183;-42
2022/07/29 02:25:47;;;;;;;14.10;2.78;;;19.20;99.90;;;;;;5133558;27;20164;-42
2022/07/29 02:28:14;;;;;;;23.77;3.22;;;19.20;99.90;;;;;;5132953;27;20156;-42
2022/07/29 02:30:41;;;;;;;16.27;2.58;;;19.30;99.90;;;;;;5133787;27;20198;-42
2022/07/29 02:33:09;;;;;;;3.10;1.60;;;19.30;99.90;;;;;;5133631;27;20164;-43
2022/07/29 02:35:36;;;;;;;2.13;1.52;;;19.20;99.90;;;;;;5133419;27;20156;-43
2022/07/29 02:40:50;;;;;;;2.92;1.70;;;19.10;99.90;;;;;;5133661;27;20228;-43
2022/07/29 02:43:18;;;;;;;4.03;1.73;;;19.10;99.90;;;;;;5133309;27;20250;-42
2022/07/29 02:45:44;;;;;;;2.95;1.42;;;19.10;99.90;;;;;;5133331;27;20179;-45
2022/07/29 02:48:14;;;;;;;2.05;1.42;;;19.10;99.90;;;;;;5133237;27;20178;-45
2022/07/29 02:50:55;;;;;;;4.45;1.80;;;19.10;99.90;;;;;;5132992;27;20530;-44
2022/07/29 02:53:25;;;;;;;2.17;1.55;;;19.10;99.90;;;;;;5114817;27;20178;-45
2022/07/29 02:55:53;;;;;;;2.47;1.20;;;19.00;99.90;;;;;;5133358;27;20203;-44
2022/07/29 02:58:19;;;;;;;3.08;1.60;;;19.00;99.90;;;;;;5133136;27;20167;-45
2022/07/29 03:00:47;;;;;;;2.30;1.30;;;19.00;99.90;;;;;;5133107;27;20164;-44
2022/07/29 03:03:16;;;;;;;1.73;1.33;;;18.90;99.90;;;;;;5133413;27;20579;-44
2022/07/29 03:05:41;;;;;;;1.58;1.48;;;18.90;99.90;;;;;;5133015;27;20164;-44
2022/07/29 03:08:10;;;;;;;4.15;1.30;;;18.90;99.90;;;;;;5133077;27;20171;-44
2022/07/29 03:10:38;;;;;;;1.65;1.23;;;18.70;99.90;;;;;;5132830;27;20211;-45
2022/07/29 03:13:05;;;;;;;3.47;1.20;;;18.70;99.90;;;;;;5132942;27;20172;-45
2022/07/29 03:15:31;;;;;;;2.42;1.70;;;18.70;99.90;;;;;;5132889;27;20595;-44
2022/07/29 03:17:59;;;;;;;2.58;1.45;;;18.70;99.90;;;;;;5133265;27;20198;-51
2022/07/29 03:20:26;;;;;;;2.45;1.83;;;18.60;99.90;;;;;;5132667;27;20174;-52
2022/07/29 03:22:51;;;;;;;1.67;1.35;;;18.60;99.90;;;;;;5132619;28;20195;-51
2022/07/29 03:25:19;;;;;;;2.65;1.15;;;18.50;99.90;;;;;;5132880;27;20258;-51
2022/07/29 03:27:45;;;;;;;2.13;1.00;;;18.50;99.90;;;;;;5132876;27;20243;-50
2022/07/29 03:30:12;;;;;;;0.82;0.80;;;18.50;99.90;;;;;;5132801;27;20152;-51
2022/07/29 03:32:39;;;;;;;5.45;1.33;;;18.40;99.90;;;;;;5132729;28;20179;-50
2022/07/29 03:35:05;;;;;;;1.85;1.40;;;18.40;99.90;;;;;;5132756;27;20164;-50
2022/07/29 03:37:31;;;;;;;1.33;1.20;;;18.30;99.90;;;;;;5132676;27;20203;-51
2022/07/29 03:39:58;;;;;;;4.90;1.35;;;18.10;99.90;;;;;;5135861;27;20167;-44
2022/07/29 03:42:27;;;;;;;6.22;1.60;;;18.10;99.90;;;;;;5137246;27;20172;-45
2022/07/29 03:44:55;;;;;;;2.70;1.27;;;18.00;99.90;;;;;;5137131;27;20167;-44
2022/07/29 03:47:25;;;;;;;2.13;1.40;;;18.10;99.90;;;;;;5136853;27;20168;-45
2022/07/29 03:49:53;;;;;;;2.70;1.55;;;18.10;99.90;;;;;;5136927;27;20164;-45
2022/07/29 03:52:19;;;;;;;2.63;1.50;;;18.10;99.90;;;;;;5136701;27;20186;-42
2022/07/29 03:54:45;;;;;;;2.85;1.50;;;18.00;99.90;;;;;;5136648;27;20623;-42
2022/07/29 03:57:11;;;;;;;6.55;2.20;;;17.90;99.90;;;;;;5136537;27;20295;-42
2022/07/29 03:59:38;;;;;;;3.92;1.70;;;17.90;99.90;;;;;;5136484;27;20164;-45
2022/07/29 04:02:05;;;;;;;2.97;1.80;;;17.80;99.90;;;;;;5136442;27;20160;-44
2022/07/29 04:04:34;;;;;;;1.42;1.27;;;17.70;99.90;;;;;;5136704;27;20556;-43
2022/07/29 04:06:59;;;;;;;2.95;1.95;;;17.60;99.90;;;;;;5136267;27;20654;-45
2022/07/29 04:09:25;;;;;;;3.17;1.50;;;17.60;99.90;;;;;;5136468;27;20167;-41
2022/07/29 04:11:51;;;;;;;3.20;1.40;;;17.50;99.90;;;;;;5135865;27;20211;-42
2022/07/29 04:14:16;;;;;;;2.45;1.33;;;17.30;99.90;;;;;;5135948;27;20160;-43
2022/07/29 04:16:42;;;;;;;7.32;1.80;;;17.20;99.90;;;;;;5135967;27;20211;-42
2022/07/29 04:19:07;;;;;;;1.83;1.58;;;17.10;99.90;;;;;;5136123;27;20242;-45
2022/07/29 04:21:40;;;;;;;4.63;1.60;;;17.10;99.90;;;;;;5136306;27;20171;-42
2022/07/29 04:24:07;;;;;;;2.45;1.50;;;17.20;99.90;;;;;;5136057;27;20164;-43
2022/07/29 04:26:33;;;;;;;4.80;1.85;;;17.10;99.90;;;;;;5135578;27;20278;-43
2022/07/29 04:28:58;;;;;;;2.80;1.50;;;17.10;99.90;;;;;;5135910;27;20194;-44
2022/07/29 04:31:24;;;;;;;1.92;1.48;;;17.10;99.90;;;;;;5136220;27;20168;-43
2022/07/29 04:33:49;;;;;;;3.50;1.88;;;17.10;99.90;;;;;;5135859;27;20170;-43
2022/07/29 04:36:15;;;;;;;1.45;1.35;;;17.10;99.90;;;;;;5135431;27;20249;-44
2022/07/29 04:38:40;;;;;;;3.53;1.60;;;17.00;99.90;;;;;;5135656;27;20195;-43
2022/07/29 04:41:08;;;;;;;1.63;1.45;;;17.20;99.90;;;;;;5135798;27;20570;-42
2022/07/29 04:43:34;;;;;;;2.50;1.65;;;17.20;99.90;;;;;;5135586;27;20203;-44
2022/07/29 04:46:00;;;;;;;7.60;2.00;;;17.20;99.90;;;;;;5135371;27;20193;-43
2022/07/29 04:48:26;;;;;;;1.27;1.20;;;17.30;99.90;;;;;;5135931;27;20160;-43
2022/07/29 04:50:52;;;;;;;2.95;1.65;;;17.30;99.90;;;;;;5134749;27;20164;-45
2022/07/29 04:53:18;;;;;;;3.47;1.60;;;17.20;99.90;;;;;;5135406;27;20160;-45
2022/07/29 04:55:44;;;;;;;3.85;1.60;;;17.20;99.90;;;;;;5135685;27;20695;-46
2022/07/29 04:58:10;;;;;;;5.35;1.50;;;17.30;99.90;;;;;;5135655;27;20176;-45
2022/07/29 05:00:36;;;;;;;2.88;1.80;;;17.30;99.90;;;;;;5135422;27;20498;-44
2022/07/29 05:03:02;;;;;;;1.75;1.20;;;17.40;99.90;;;;;;5134201;27;20503;-45
2022/07/29 05:05:28;;;;;;;3.72;1.85;;;17.50;99.90;;;;;;5135155;27;20623;-46
2022/07/29 05:07:54;;;;;;;3.00;1.58;;;17.60;99.90;;;;;;5135630;27;20251;-44
2022/07/29 05:10:19;;;;;;;10.25;2.00;;;17.70;99.90;;;;;;5134951;27;20172;-45
2022/07/29 05:12:45;;;;;;;3.03;1.85;;;17.80;99.90;;;;;;5135128;27;20168;-45
2022/07/29 05:15:10;;;;;;;2.08;1.55;;;17.90;99.90;;;;;;5134931;27;20197;-46
2022/07/29 05:17:36;;;;;;;3.10;1.58;;;17.80;99.90;;;;;;5134912;27;20226;-46
2022/07/29 05:20:03;;;;;;;5.07;1.88;;;18.00;99.90;;;;;;5135317;27;20252;-48
2022/07/29 05:22:29;;;;;;;2.35;1.42;;;18.10;99.90;;;;;;5135152;27;20507;-44
2022/07/29 05:24:54;;;;;;;2.15;1.90;;;17.90;99.90;;;;;;5135420;27;20291;-44
2022/07/29 05:27:20;;;;;;;3.50;2.10;;;18.00;99.90;;;;;;5134635;27;20198;-45
2022/07/29 05:29:45;;;;;;;3.28;1.80;;;18.10;99.90;;;;;;5134528;27;20156;-45
2022/07/29 05:32:12;;;;;;;6.32;1.90;;;18.10;99.90;;;;;;5134275;27;20646;-47
2022/07/29 05:34:38;;;;;;;3.33;2.03;;;18.30;99.90;;;;;;5134759;27;20247;-48
2022/07/29 05:37:03;;;;;;;2.92;1.63;;;18.40;99.90;;;;;;5134247;27;20770;-46
2022/07/29 05:39:29;;;;;;;2.85;2.13;;;18.40;99.90;;;;;;5133775;27;20496;-45
2022/07/29 05:41:55;;;;;;;4.60;1.67;;;18.50;99.90;;;;;;5134829;27;20301;-45
2022/07/29 05:44:20;;;;;;;4.80;2.05;;;18.70;99.90;;;;;;5134349;27;20178;-46
2022/07/29 05:46:46;;;;;;;4.93;1.90;;;18.80;99.90;;;;;;5134317;27;20284;-47
2022/07/29 05:49:11;;;;;;;5.90;2.42;;;18.80;99.90;;;;;;5134420;27;20175;-46
2022/07/29 05:51:37;;;;;;;6.30;1.90;;;18.70;99.90;;;;;;5134309;27;20185;-45
2022/07/29 05:54:03;;;;;;;4.30;1.80;;;18.70;99.90;;;;;;5134057;27;20171;-47
2022/07/29 05:56:29;;;;;;;2.13;1.85;;;18.70;99.90;;;;;;5134456;27;20195;-45
2022/07/29 05:58:54;;;;;;;2.30;2.10;;;18.80;99.90;;;;;;5134375;27;20216;-46
2022/07/29 06:01:20;;;;;;;2.08;1.83;;;18.80;99.90;;;;;;5134021;27;20205;-47
2022/07/29 06:03:46;;;;;;;2.75;2.10;;;18.60;99.90;;;;;;5132954;27;20190;-44
2022/07/29 06:06:12;;;;;;;3.92;2.03;;;18.40;99.90;;;;;;5133991;27;20194;-45
2022/07/29 06:08:38;;;;;;;3.75;1.75;;;18.30;99.90;;;;;;5134095;27;20505;-44
2022/07/29 06:11:05;;;;;;;4.28;2.55;;;18.30;99.90;;;;;;5133759;27;20233;-45
2022/07/29 06:13:31;;;;;;;2.55;2.17;;;18.30;99.90;;;;;;5134191;27;20224;-44
2022/07/29 06:15:56;;;;;;;4.55;2.47;;;18.40;99.90;;;;;;5133845;27;20164;-45
2022/07/29 06:18:23;;;;;;;5.15;1.80;;;18.30;99.90;;;;;;5134157;27;20175;-44
2022/07/29 06:20:52;;;;;;;2.67;1.90;;;18.40;99.90;;;;;;5133785;27;20516;-46
2022/07/29 06:23:19;;;;;;;5.28;2.10;;;18.50;99.90;;;;;;5133806;27;20168;-45
2022/07/29 06:25:44;;;;;;;4.38;2.50;;;18.50;99.90;;;;;;5133607;27;20192;-45
2022/07/29 06:28:10;;;;;;;3.00;2.08;;;18.40;99.90;;;;;;5133672;27;20260;-46
2022/07/29 06:30:36;;;;;;;3.67;2.20;;;18.40;99.90;;;;;;5133714;27;20733;-49
2022/07/29 06:33:02;;;;;;;4.13;2.20;;;18.30;99.90;;;;;;5133490;27;20166;-47
2022/07/29 06:35:28;;;;;;;3.30;1.83;;;18.20;99.90;;;;;;5133752;27;20259;-45
2022/07/29 06:37:53;;;;;;;5.43;2.63;;;18.20;99.90;;;;;;5133703;27;20283;-43
2022/07/29 06:43:20;;;;;;;8.52;2.58;;;18.20;99.90;;;;;;5070221;28;20251;-49
2022/07/29 06:45:46;;;;;;;3.10;2.25;;;18.00;99.90;;;;;;5120010;27;20887;-45
2022/07/29 06:48:11;;;;;;;6.63;2.70;;;18.00;99.90;;;;;;5133314;27;20164;-50
2022/07/29 06:50:37;;;;;;;3.30;2.33;;;18.10;99.90;;;;;;5133584;27;20197;-50
2022/07/29 06:53:03;;;;;;;3.55;2.50;;;18.10;99.90;;;;;;5133273;27;20649;-53
2022/07/29 06:55:29;;;;;;;2.83;2.08;;;18.20;99.90;;;;;;5133253;27;20156;-51
2022/07/29 06:57:54;;;;;;;3.10;2.47;;;18.20;99.90;;;;;;5133510;27;20334;-51
2022/07/29 07:00:20;;;;;;;6.38;2.75;;;18.00;99.90;;;;;;5133095;27;20198;-51
2022/07/29 07:02:45;;;;;;;3.25;2.60;;;18.00;99.90;;;;;;5133373;27;20172;-51
2022/07/29 07:05:11;;;;;;;6.68;2.25;;;18.10;99.90;;;;;;5133063;27;20172;-51
2022/07/29 07:07:37;;;;;;;4.95;2.58;;;18.00;99.90;;;;;;5132991;27;20168;-51
2022/07/29 07:10:03;;;;;;;4.55;2.47;;;18.10;99.90;;;;;;5132983;27;20159;-52
2022/07/29 07:12:28;;;;;;;4.50;2.30;;;18.00;99.90;;;;;;5132786;27;20216;-51
2022/07/29 07:14:54;;;;;;;3.45;2.22;;;18.00;99.90;;;;;;5132969;27;20208;-51
2022/07/29 07:17:19;;;;;;;2.30;2.10;;;18.00;99.90;;;;;;5132798;27;20203;-50
2022/07/29 07:19:45;;;;;;;3.08;2.35;;;18.10;99.90;;;;;;5132865;28;20238;-50
2022/07/29 07:22:10;;;;;;;4.38;2.28;;;18.10;99.90;;;;;;5132813;27;20716;-49
2022/07/29 07:24:36;;;;;;;6.07;2.15;;;18.10;99.90;;;;;;5132848;27;20247;-50
2022/07/29 07:27:02;;;;;;;6.55;2.90;;;18.30;99.90;;;;;;5133044;28;20172;-49
2022/07/29 07:29:28;;;;;;;3.35;2.45;;;18.40;99.90;;;;;;5132814;27;20212;-50
2022/07/29 07:31:54;;;;;;;3.63;2.80;;;18.50;99.90;;;;;;5133286;27;20164;-50
2022/07/29 07:34:19;;;;;;;2.65;2.15;;;18.50;99.90;;;;;;5133156;27;20688;-49
2022/07/29 07:36:45;;;;;;;9.27;2.42;;;18.50;99.90;;;;;;5132824;27;20608;-51
2022/07/29 07:39:12;;;;;;;2.75;2.15;;;18.70;99.90;;;;;;5132913;27;20168;-51
2022/07/29 07:41:37;;;;;;;7.45;2.70;;;18.60;99.90;;;;;;5132987;27;20228;-51
2022/07/29 07:44:03;;;;;;;3.55;2.60;;;18.70;99.90;;;;;;5114688;28;20164;-51
2022/07/29 07:46:29;;;;;;;3.60;2.72;;;18.70;99.90;;;;;;5132681;27;20175;-51
2022/07/29 07:48:54;;;;;;;6.32;2.60;;;18.70;99.90;;;;;;5133095;27;20252;-49
2022/07/29 07:51:20;;;;;;;2.50;2.30;;;18.80;99.90;;;;;;5132518;28;20173;-51
2022/07/29 07:53:49;;;;;;;4.32;2.70;;;18.80;99.90;;;;;;5132536;27;20166;-51
2022/07/29 07:56:15;;;;;;;2.90;2.33;;;18.80;99.90;;;;;;5132355;28;20287;-51
2022/07/29 07:58:41;;;;;;;3.95;2.50;;;18.90;99.90;;;;;;5132606;27;20258;-51
2022/07/29 08:01:07;;;;;;;2.58;2.38;;;19.00;99.90;;;;;;5132562;28;20240;-52
2022/07/29 08:03:33;;;;;;;4.57;2.50;;;19.00;99.90;;;;;;5132460;27;20667;-49
2022/07/29 08:05:59;;;;;;;6.00;2.58;;;18.90;99.90;;;;;;5132537;27;20202;-51
2022/07/29 08:08:24;;;;;;;3.92;2.30;;;19.00;99.90;;;;;;5132946;27;20190;-51
2022/07/29 08:10:53;;;;;;;2.83;2.60;;;19.10;99.90;;;;;;5132255;27;20237;-50
2022/07/29 08:13:27;;;;;;;3.40;2.47;;;19.00;99.90;;;;;;5132433;28;20209;-50
2022/07/29 08:16:11;;;;;;;2.63;2.05;;;19.20;99.90;;;;;;5132552;28;20167;-51
2022/07/29 08:18:38;;;;;;;4.25;2.67;;;19.20;99.90;;;;;;5132261;27;20229;-51
2022/07/29 08:21:04;;;;;;;14.52;3.33;;;19.20;99.90;;;;;;5132301;27;20171;-51
2022/07/29 08:23:39;;;;;;;4.40;2.42;;;19.30;99.90;;;;;;5132306;27;20172;-51
2022/07/29 08:26:10;;;;;;;2.67;2.47;;;19.20;99.90;;;;;;5133668;27;20517;-51
2022/07/29 08:28:39;;;;;;;2.58;2.38;;;19.20;99.90;;;;;;5136350;27;20244;-51
2022/07/29 08:31:05;;;;;;;5.20;2.42;;;19.20;99.90;;;;;;5135975;27;20164;-51
2022/07/29 08:33:32;;;;;;;3.30;2.70;;;19.30;99.90;;;;;;5117513;27;20168;-50
2022/07/29 08:35:57;;;;;;;3.45;2.40;;;19.30;99.90;;;;;;5136024;27;20666;-51
2022/07/29 08:38:23;;;;;;;2.40;2.20;;;19.50;99.90;;;;;;5136052;27;20176;-51
2022/07/29 08:40:49;;;;;;;3.10;2.58;;;19.60;99.90;;;;;;5135724;27;20247;-51
2022/07/29 08:43:14;;;;;;;2.83;2.45;;;19.70;99.90;;;;;;5135645;27;20171;-48
2022/07/29 08:45:46;;;;;;;2.80;2.38;;;19.80;99.90;;;;;;5135608;27;20292;-52
2022/07/29 08:48:13;;;;;;;3.92;2.60;;;19.90;99.90;;;;;;5135556;27;20239;-51
2022/07/29 08:50:40;;;;;;;4.40;2.47;;;20.00;99.90;;;;;;5135605;27;20160;-45
2022/07/29 08:53:10;;;;;;;4.20;2.40;;;20.00;99.90;;;;;;5135603;27;20213;-51
2022/07/29 08:55:37;;;;;;;2.67;2.30;;;20.00;99.90;;;;;;5135745;27;20202;-51
2022/07/29 08:58:04;;;;;;;5.25;2.80;;;20.00;99.90;;;;;;5135326;27;20200;-48
2022/07/29 09:00:29;;;;;;;2.47;2.25;;;20.00;99.90;;;;;;5135557;27;20191;-51
2022/07/29 09:02:58;;;;;;;6.53;3.45;;;19.90;99.90;;;;;;5135569;27;20199;-51
2022/07/29 09:05:25;;;;;;;3.35;2.22;;;19.80;99.90;;;;;;5135639;27;20255;-47
2022/07/29 09:07:51;;;;;;;2.60;2.40;;;19.70;99.90;;;;;;5135800;27;20164;-50
2022/07/29 09:10:16;;;;;;;4.53;2.50;;;19.60;99.90;;;;;;5135015;27;20166;-50
2022/07/29 09:12:42;;;;;;;5.55;2.90;;;19.60;99.90;;;;;;5135370;27;20630;-50
2022/07/29 09:15:09;;;;;;;2.80;2.60;;;19.60;99.90;;;;;;5135056;27;20643;-50
2022/07/29 09:17:44;;;;;;;3.67;2.50;;;19.70;99.90;;;;;;5135040;27;20200;-48
2022/07/29 09:20:12;;;;;;;5.93;4.07;;;19.70;99.90;;;;;;5135157;27;20168;-48
2022/07/29 09:22:38;;;;;;;6.97;3.15;;;20.00;99.90;;;;;;5135047;27;20669;-50
2022/07/29 09:25:03;;;;;;;3.38;2.22;;;20.60;99.90;;;;;;5134907;27;20164;-47
2022/07/29 09:27:29;;;;;;;3.03;2.42;;;20.90;99.90;;;;;;5134653;27;20163;-51
2022/07/29 09:29:57;;;;;;;5.47;2.90;;;20.90;99.90;;;;;;5135241;27;20525;-49
2022/07/29 09:32:22;;;;;;;4.03;2.72;;;20.80;99.90;;;;;;5135129;27;20642;-49
2022/07/29 09:34:48;;;;;;;2.92;2.35;;;20.60;99.90;;;;;;5135068;27;20176;-49
2022/07/29 09:37:28;;;;;;;4.82;2.78;;;20.70;99.90;;;;;;5134419;27;20228;-46
2022/07/29 09:39:54;;;;;;;3.60;2.50;;;20.70;99.90;;;;;;5134900;27;20164;-49
2022/07/29 09:42:32;;;;;;;4.45;2.70;;;20.70;99.90;;;;;;5134564;27;20220;-51
2022/07/29 09:44:57;;;;;;;3.78;2.75;;;20.70;99.90;;;;;;5134528;27;20649;-51
2022/07/29 09:47:46;;;;;;;3.63;2.58;;;20.80;99.90;;;;;;5135365;27;20250;-51
2022/07/29 09:50:12;;;;;;;5.43;3.22;;;20.90;99.90;;;;;;5134760;27;20168;-46
2022/07/29 09:52:53;;;;;;;3.50;2.63;;;21.00;99.90;;;;;;5134302;27;20594;-47
2022/07/29 09:55:19;;;;;;;5.50;2.78;;;21.20;99.90;;;;;;5134468;27;20168;-47
2022/07/29 09:57:46;;;;;;;3.80;2.97;;;21.20;99.90;;;;;;5134034;27;20677;-45
2022/07/29 10:00:17;;;;;;;3.42;2.97;;;21.10;99.90;;;;;;5134436;27;20236;-44
2022/07/29 10:02:45;;;;;;;3.97;2.80;;;21.10;99.90;;;;;;5134121;27;20167;-45
2022/07/29 10:05:25;;;;;;;14.20;3.50;;;21.20;99.90;;;;;;5134274;27;20171;-45
2022/07/29 10:07:56;;;;;;;5.03;3.00;;;21.20;99.90;;;;;;5134414;27;20164;-45
2022/07/29 10:10:31;;;;;;;3.83;2.97;;;21.20;99.90;;;;;;5134458;27;20254;-45
2022/07/29 10:13:10;;;;;;;5.07;3.00;;;21.30;99.90;;;;;;5133943;27;20275;-43
2022/07/29 10:15:44;;;;;;;5.72;2.92;;;21.40;99.90;;;;;;5133775;27;20242;-43
2022/07/29 10:18:11;;;;;;;4.70;2.55;;;21.40;99.90;;;;;;5134056;27;20204;-49
2022/07/29 10:20:38;;;;;;;4.13;2.53;;;21.30;99.90;;;;;;5133778;27;20196;-49
2022/07/29 10:23:04;;;;;;;3.15;2.70;;;21.40;99.90;;;;;;5133759;27;20252;-48
2022/07/29 10:25:30;;;;;;;3.42;2.70;;;21.70;99.90;;;;;;5133700;27;20156;-49
2022/07/29 10:27:56;;;;;;;3.10;2.40;;;21.90;99.90;;;;;;5134074;27;20555;-49
2022/07/29 10:30:24;;;;;;;5.38;2.30;;;22.10;99.90;;;;;;5133827;27;20191;-49
2022/07/29 10:33:07;;;;;;;3.67;2.35;;;22.30;99.90;;;;;;5133832;27;20168;-49
2022/07/29 10:35:51;;;;;;;7.28;2.65;;;22.60;99.90;;;;;;5133490;27;20160;-49
2022/07/29 10:38:35;;;;;;;4.43;2.10;;;22.70;99.90;;;;;;5133485;27;20259;-49
2022/07/29 10:41:29;;;;;;;3.47;2.40;;;23.00;99.90;;;;;;5133405;27;20160;-47
2022/07/29 10:44:08;;;;;;;3.22;1.80;;;23.30;99.90;;;;;;5133284;27;20160;-44
2022/07/29 10:46:36;;;;;;;2.67;2.25;;;23.70;99.90;;;;;;5133309;27;20250;-49
2022/07/29 10:49:14;;;;;;;5.25;2.55;;;23.80;99.90;;;;;;5132933;27;20195;-48
2022/07/29 10:52:01;;;;;;;12.98;3.55;;;23.90;99.90;;;;;;5133240;27;20187;-49
2022/07/29 10:54:35;;;;;;;2.20;1.95;;;24.20;99.90;;;;;;5133156;27;20195;-54
2022/07/29 10:57:25;;;;;;;2.45;2.08;;;24.30;99.90;;;;;;5133059;27;20192;-51
2022/07/29 11:00:08;;;;;;;2.55;1.83;;;24.60;99.90;;;;;;5133368;27;20550;-51
2022/07/29 11:02:34;;;;;;;2.83;1.95;;;24.50;99.90;;;;;;5133171;27;20159;-51
2022/07/29 11:05:08;;;;;;;3.70;1.60;;;24.60;99.90;;;;;;5114632;27;20679;-48
2022/07/29 11:07:35;;;;;;;4.88;1.80;;;24.50;99.90;;;;;;5133253;27;20167;-50
2022/07/29 11:10:12;;;;;;;3.72;1.48;;;24.60;99.90;;;;;;5133192;27;20224;-49
2022/07/29 11:12:38;;;;;;;2.67;1.60;;;24.60;99.90;;;;;;5133316;27;20183;-47
2022/07/29 11:15:05;;;;;;;1.90;1.70;;;24.50;99.90;;;;;;5132937;27;20698;-49
2022/07/29 11:18:00;;;;;;;2.08;1.80;;;24.40;99.90;;;;;;5133099;27;20207;-49
2022/07/29 11:20:38;;;;;;;2.50;2.10;;;24.50;99.90;;;;;;5133641;27;20167;-48
2022/07/29 11:23:29;;;;;;;2.97;1.60;;;24.60;99.90;;;;;;5132768;27;20211;-49
2022/07/29 11:26:19;;;;;;;2.38;1.70;;;24.90;99.90;;;;;;5132846;27;20171;-44
2022/07/29 11:29:00;;;;;;;2.92;1.80;;;24.80;99.90;;;;;;5132783;27;20623;-51
2022/07/29 11:31:48;;;;;;;4.88;1.92;;;24.70;99.90;;;;;;5132927;27;20167;-51
2022/07/29 11:34:17;;;;;;;4.22;2.00;;;24.90;99.90;;;;;;5133032;27;20252;-51
2022/07/29 11:37:13;;;;;;;2.95;1.95;;;25.00;99.90;;;;;;5132604;27;20191;-51
2022/07/29 11:39:47;;;;;;;2.58;1.17;;;25.20;99.90;;;;;;5133005;27;20170;-49
2022/07/29 11:42:25;;;;;;;2.33;1.50;;;25.20;99.90;;;;;;5132747;27;20167;-48
2022/07/29 11:45:00;;;;;;;3.67;1.63;;;25.40;99.90;;;;;;5132899;27;20160;-49
2022/07/29 11:47:27;;;;;;;2.70;1.60;;;25.50;99.90;;;;;;5132690;27;20220;-48
2022/07/29 11:49:56;;;;;;;1.80;1.58;;;25.40;99.90;;;;;;5133002;27;20159;-49
2022/07/29 11:52:21;;;;;;;4.13;1.98;;;25.60;99.90;;;;;;5132987;27;20160;-49
2022/07/29 11:54:48;;;;;;;2.03;1.52;;;25.20;99.90;;;;;;5132909;27;20197;-49
2022/07/29 11:57:20;;;;;;;3.20;1.92;;;25.20;99.90;;;;;;5132477;27;20246;-49
2022/07/29 11:59:47;;;;;;;3.70;1.70;;;25.20;99.90;;;;;;5132530;27;20191;-50
2022/07/29 12:02:14;;;;;;;3.53;1.70;;;25.20;99.90;;;;;;5135865;27;20171;-52
2022/07/29 12:04:56;;;;;;;3.25;1.50;;;25.20;99.90;;;;;;5136550;27;20159;-51
2022/07/29 12:07:32;;;;;;;5.22;1.52;;;25.20;99.90;;;;;;5136979;27;20172;-51
2022/07/29 12:09:58;;;;;;;3.80;1.90;;;25.10;99.90;;;;;;5136421;27;20160;-50
2022/07/29 12:12:24;;;;;;;2.10;1.60;;;25.30;99.90;;;;;;5136737;27;20704;-48
2022/07/29 12:14:50;;;;;;;3.67;1.70;;;25.60;99.90;;;;;;5136746;27;20235;-48
2022/07/29 12:17:30;;;;;;;2.15;1.58;;;25.50;99.90;;;;;;5136489;27;20733;-48
2022/07/29 12:19:59;;;;;;;2.10;1.90;;;26.00;99.90;;;;;;5134280;27;20506;-47
2022/07/29 12:22:31;;;;;;;3.20;2.20;;;26.10;99.90;;;;;;5116264;27;20168;-46
2022/07/29 12:25:04;;;;;;;3.63;2.55;;;26.20;99.90;;;;;;5154571;27;20167;-47
2022/07/29 12:27:34;;;;;;;5.07;2.38;;;26.10;99.90;;;;;;5155939;27;20198;-49
2022/07/29 12:30:06;;;;;;;4.35;2.22;;;25.90;99.90;;;;;;5155612;27;20525;-49
2022/07/29 12:32:42;;;;;;;2.80;2.20;;;25.80;99.90;;;;;;5156106;27;20178;-49
2022/07/29 12:35:11;;;;;;;3.60;2.45;;;25.90;99.90;;;;;;5136995;27;20200;-48
2022/07/29 12:37:38;;;;;;;4.80;2.83;;;25.90;99.90;;;;;;5155587;27;20214;-49
2022/07/29 12:40:05;;;;;;;3.60;2.70;;;25.90;99.90;;;;;;5136948;27;20579;-48
2022/07/29 12:42:32;;;;;;;4.90;3.33;;;25.80;99.90;;;;;;5155702;27;20194;-49
2022/07/29 12:44:57;;;;;;;5.30;2.65;;;25.90;99.90;;;;;;5155556;27;20633;-49
2022/07/29 12:47:27;;;;;;;3.67;2.67;;;26.20;99.90;;;;;;5155387;27;20173;-47
2022/07/29 12:50:08;;;;;;;4.20;2.40;;;26.20;99.90;;;;;;5155676;27;20173;-47
2022/07/29 12:52:35;;;;;;;3.13;2.40;;;26.20;99.90;;;;;;5155081;27;20170;-48
2022/07/29 12:55:01;;;;;;;5.07;3.10;;;26.30;99.90;;;;;;5154918;27;20198;-49
2022/07/29 12:57:27;;;;;;;3.92;2.60;;;26.50;99.90;;;;;;5155146;27;20209;-49
2022/07/29 13:00:08;;;;;;;6.38;2.55;;;26.50;99.90;;;;;;5155308;27;20668;-47
2022/07/29 13:02:34;;;;;;;4.68;2.55;;;26.60;99.90;;;;;;5136639;27;20173;-47